Stewartstown, Pennsylvania
Current Conditions -  °F | °C
As of 10:53 AM on Thursday 29 Jan 2015 (Local Time) from KTHV Reporting Station
Overcast Overcast  
Wind Chill: 25°   Ceiling: 11000
Heat Index: 25°   Visibility: 9mi
Dew Point: 11°   Wind: 0mph
Humidity: 55%   Direction: NA
Pressure: 30.23"   Gusts: NA
Location:  39.75°N, 76.59°W
Report Text: KTHV 291553Z AUTO 00000KT 9SM OVC110 M04/M12 A3023 RMK AO2 SLP248 T10391117
Loading
Personal Weather Stations






























Interactive Weather Map New forecast layout! Learn more

10-Day Weather Forecast

Advertisements
Track Severe Weather on mobile